createdAt,value
2022-12-15T00:01:35.986Z,33.88
2022-12-15T00:06:07.011Z,21.63
2022-12-15T00:10:38.720Z,33.90
2022-12-15T00:15:11.364Z,38.55
2022-12-15T00:19:42.407Z,43.63
2022-12-15T00:24:13.570Z,45.40
2022-12-15T00:28:44.624Z,40.83
2022-12-15T00:33:17.621Z,18.00
2022-12-15T00:37:49.164Z,49.78
2022-12-15T00:42:03.129Z,41.47
2022-12-15T00:46:33.494Z,50.07
2022-12-15T00:50:54.489Z,39.78
2022-12-15T00:55:26.517Z,36.85
2022-12-15T00:59:57.946Z,43.30
2022-12-15T01:04:32.025Z,44.95
2022-12-15T01:09:05.033Z,45.00
2022-12-15T01:13:36.297Z,44.80
2022-12-15T01:18:07.416Z,52.08
2022-12-15T01:22:56.487Z,43.30
2022-12-15T01:27:32.103Z,34.65
2022-12-15T01:32:06.489Z,45.65
2022-12-15T01:36:40.686Z,32.30
2022-12-15T01:41:14.847Z,24.48
2022-12-15T01:45:58.164Z,31.55
2022-12-15T01:50:33.954Z,25.95
2022-12-15T01:55:08.933Z,29.92
2022-12-15T01:59:50.681Z,38.37
2022-12-15T02:04:32.313Z,24.08
2022-12-15T02:09:07.950Z,39.80
2022-12-15T02:13:52.729Z,31.53
2022-12-15T02:18:34.222Z,28.25
2022-12-15T02:23:47.046Z,30.20
2022-12-15T02:28:36.969Z,38.10
2022-12-15T02:33:19.885Z,40.47
2022-12-15T02:37:54.008Z,30.40
2022-12-15T02:42:29.895Z,27.63
2022-12-15T02:47:25.634Z,23.58
2022-12-15T02:52:11.586Z,36.80
2022-12-15T02:56:53.931Z,37.83
2022-12-15T03:01:34.015Z,29.45
2022-12-15T03:06:08.337Z,24.33
2022-12-15T03:10:43.856Z,21.20
2022-12-15T03:15:18.451Z,17.83
2022-12-15T03:19:52.544Z,28.38
2022-12-15T03:24:26.622Z,36.35
2022-12-15T03:29:02.003Z,39.37
2022-12-15T03:33:36.250Z,41.80
2022-12-15T03:38:10.275Z,38.10
2022-12-15T03:42:49.877Z,30.20
2022-12-15T03:47:25.393Z,39.38
2022-12-15T03:51:59.504Z,38.60
2022-12-15T03:56:33.592Z,34.10
2022-12-15T04:01:12.822Z,37.00
2022-12-15T04:05:48.338Z,29.23
2022-12-15T04:10:23.949Z,20.13
2022-12-15T04:15:00.424Z,32.85
2022-12-15T04:19:52.073Z,35.25
2022-12-15T04:24:45.672Z,35.73
2022-12-15T04:29:37.485Z,34.17
2022-12-15T04:34:31.847Z,17.95
2022-12-15T04:39:24.228Z,32.03
2022-12-15T04:44:17.616Z,32.70
2022-12-15T04:49:09.070Z,29.60
2022-12-15T04:54:02.246Z,23.70
2022-12-15T04:58:53.881Z,22.00
2022-12-15T05:03:47.062Z,26.05
2022-12-15T05:08:39.050Z,25.05
2022-12-15T05:13:31.339Z,26.07
2022-12-15T05:18:23.067Z,24.63
2022-12-15T05:23:16.371Z,28.55
2022-12-15T05:28:07.688Z,16.83
2022-12-15T05:32:41.865Z,23.38
2022-12-15T05:37:15.920Z,31.25
2022-12-15T05:41:52.472Z,20.43
2022-12-15T05:46:26.642Z,34.05
2022-12-15T05:51:05.041Z,14.38
2022-12-15T05:55:39.458Z,14.10
2022-12-15T06:00:16.133Z,30.15
2022-12-15T06:04:53.349Z,30.48
2022-12-15T06:09:27.472Z,33.90
2022-12-15T06:14:01.574Z,29.55
2022-12-15T06:18:39.953Z,31.30
2022-12-15T06:23:14.219Z,26.45
2022-12-15T06:27:48.352Z,26.50
2022-12-15T06:33:06.505Z,19.30
2022-12-15T06:37:42.013Z,28.25
2022-12-15T06:42:16.380Z,27.90
2022-12-15T06:46:50.842Z,22.42
2022-12-15T06:51:25.977Z,20.98
2022-12-15T06:56:06.668Z,26.23
2022-12-15T07:00:41.958Z,27.52
2022-12-15T07:05:16.361Z,25.02
2022-12-15T07:09:50.571Z,30.80
2022-12-15T07:14:26.798Z,23.30
2022-12-15T07:19:01.000Z,24.98
2022-12-15T07:23:53.174Z,17.67
2022-12-15T07:28:28.826Z,19.02
2022-12-15T07:33:05.707Z,23.75
2022-12-15T07:37:40.271Z,32.43
2022-12-15T07:42:14.406Z,30.73
2022-12-15T07:46:49.249Z,28.80
2022-12-15T07:51:25.324Z,24.47
2022-12-15T07:56:09.577Z,27.50
2022-12-15T08:00:48.951Z,32.08
2022-12-15T08:05:23.586Z,28.27
2022-12-15T08:09:59.848Z,26.73
2022-12-15T08:14:35.392Z,17.38
2022-12-15T08:19:15.346Z,16.50
2022-12-15T08:23:50.726Z,22.40
2022-12-15T08:28:26.181Z,33.13
2022-12-15T08:33:00.680Z,34.57
2022-12-15T08:37:36.050Z,34.55
2022-12-15T08:42:10.545Z,28.40
2022-12-15T08:46:46.503Z,36.80
2022-12-15T08:51:21.660Z,35.47
2022-12-15T08:55:56.089Z,21.63
2022-12-15T09:00:30.550Z,36.90
2022-12-15T09:05:07.300Z,28.60
2022-12-15T09:09:41.532Z,37.53
2022-12-15T09:14:17.479Z,37.58
2022-12-15T09:18:53.856Z,34.47
2022-12-15T09:23:29.782Z,32.55
2022-12-15T09:28:04.360Z,33.00
2022-12-15T09:32:38.832Z,22.15
2022-12-15T09:37:13.527Z,31.77
2022-12-15T09:41:55.792Z,33.55
2022-12-15T09:46:41.331Z,33.88
2022-12-15T09:51:19.071Z,27.80
2022-12-15T09:56:08.312Z,29.73
2022-12-15T10:00:55.163Z,26.50
2022-12-15T10:10:43.010Z,24.65
2022-12-15T10:15:23.260Z,25.00
2022-12-15T10:20:07.482Z,28.60
2022-12-15T10:25:09.022Z,30.37
2022-12-15T10:29:43.887Z,15.57
2022-12-15T10:34:27.335Z,21.67
2022-12-15T10:39:03.117Z,23.47
2022-12-15T10:43:39.231Z,19.63
2022-12-15T10:48:21.697Z,17.90
2022-12-15T10:52:55.782Z,28.50
2022-12-15T10:57:36.071Z,23.88
2022-12-15T11:02:36.636Z,25.38
2022-12-15T11:07:15.635Z,22.60
2022-12-15T11:12:12.018Z,24.17
2022-12-15T11:16:54.076Z,22.58
2022-12-15T11:21:34.805Z,29.70
2022-12-15T11:26:23.623Z,24.97
2022-12-15T11:31:03.153Z,25.67
2022-12-15T11:35:54.736Z,27.42
2022-12-15T11:40:39.228Z,27.53
2022-12-15T11:45:21.009Z,20.23
2022-12-15T11:50:15.998Z,17.50
2022-12-15T11:54:56.669Z,23.95
2022-12-15T12:00:03.630Z,23.50
2022-12-15T12:05:01.320Z,25.20
2022-12-15T12:09:37.976Z,22.20
2022-12-15T12:14:28.059Z,23.87
2022-12-15T12:19:06.724Z,20.98
2022-12-15T12:23:46.888Z,24.92
2022-12-15T12:28:24.555Z,23.83
2022-12-15T12:33:12.667Z,26.92
2022-12-15T12:37:55.847Z,23.70
2022-12-15T12:42:42.072Z,25.65
2022-12-15T12:47:23.333Z,28.70
2022-12-15T12:52:02.143Z,24.23
2022-12-15T12:56:41.865Z,23.38
2022-12-15T13:01:26.270Z,23.97
2022-12-15T13:06:00.473Z,25.83
2022-12-15T13:10:37.478Z,27.45
2022-12-15T13:15:16.059Z,27.50
2022-12-15T13:20:21.041Z,29.20
2022-12-15T13:24:58.116Z,26.65
2022-12-15T13:29:36.009Z,32.28
2022-12-15T13:34:27.557Z,26.40
2022-12-15T13:39:01.673Z,26.33
2022-12-15T13:43:47.176Z,28.15
2022-12-15T13:48:32.754Z,27.33
2022-12-15T13:53:30.484Z,27.98
2022-12-15T13:58:09.259Z,26.88
2022-12-15T14:02:43.382Z,30.07
2022-12-15T14:07:19.239Z,32.50
2022-12-15T14:11:54.426Z,33.90
2022-12-15T14:16:31.769Z,23.40
2022-12-15T14:21:08.679Z,16.03
2022-12-15T14:25:54.932Z,18.48
2022-12-15T14:30:30.495Z,32.70
2022-12-15T14:35:05.110Z,28.77
2022-12-15T14:39:45.086Z,31.27
2022-12-15T14:44:37.791Z,26.50
2022-12-15T14:49:29.776Z,19.63
2022-12-15T14:54:04.166Z,15.60
2022-12-15T14:58:41.945Z,19.73
2022-12-15T15:03:03.792Z,26.23
2022-12-15T15:08:01.540Z,26.67
2022-12-15T15:12:45.465Z,15.85
2022-12-15T15:17:25.618Z,33.20
2022-12-15T15:22:03.619Z,32.83
2022-12-15T15:26:40.599Z,20.50
2022-12-15T15:31:28.940Z,17.42
2022-12-15T15:36:04.361Z,16.70
2022-12-15T15:40:40.168Z,20.42
2022-12-15T15:45:15.055Z,16.83
2022-12-15T15:49:49.586Z,19.98
2022-12-15T15:54:26.612Z,18.43
2022-12-15T15:59:13.884Z,13.27
2022-12-15T16:03:49.221Z,29.02
2022-12-15T16:08:27.814Z,16.30
2022-12-15T16:13:05.729Z,27.70
2022-12-15T16:17:41.603Z,18.50
2022-12-15T16:22:19.372Z,36.50
2022-12-15T16:26:53.543Z,19.95
2022-12-15T16:31:35.641Z,35.58
2022-12-15T16:36:15.625Z,21.60
2022-12-15T16:40:50.585Z,31.03
2022-12-15T16:45:27.067Z,32.72
2022-12-15T16:50:01.614Z,25.73
2022-12-15T16:54:37.640Z,37.70
2022-12-15T16:59:35.013Z,17.67
2022-12-15T17:04:10.059Z,19.90
2022-12-15T17:08:49.745Z,23.93
2022-12-15T17:13:37.639Z,47.42
2022-12-15T17:18:14.897Z,40.25
2022-12-15T17:22:56.581Z,48.33
2022-12-15T17:27:31.840Z,46.63
2022-12-15T17:32:13.843Z,41.55
2022-12-15T17:36:47.961Z,31.48
2022-12-15T17:41:42.751Z,36.20
2022-12-15T17:46:16.752Z,32.22
2022-12-15T17:50:55.122Z,37.53
2022-12-15T17:55:35.062Z,38.07
2022-12-15T18:00:18.168Z,40.03
2022-12-15T18:04:53.368Z,38.47
2022-12-15T18:09:30.075Z,29.90
2022-12-15T18:14:04.370Z,42.23
2022-12-15T18:18:38.502Z,49.30
2022-12-15T18:23:17.091Z,46.95
2022-12-15T18:27:54.969Z,46.70
2022-12-15T18:32:30.736Z,44.30
2022-12-15T18:37:11.099Z,33.70
2022-12-15T18:41:45.241Z,28.60
2022-12-15T18:46:20.795Z,18.67
2022-12-15T18:50:57.483Z,42.97
2022-12-15T18:55:32.472Z,48.45
2022-12-15T18:59:46.498Z,46.67
2022-12-15T19:04:01.665Z,35.40
2022-12-15T19:08:20.258Z,46.42
2022-12-15T19:12:33.945Z,44.40
2022-12-15T19:17:05.118Z,46.80
2022-12-15T19:21:40.162Z,48.50
2022-12-15T19:25:54.901Z,47.47
2022-12-15T19:30:16.851Z,48.53
2022-12-15T19:34:31.316Z,46.90
2022-12-15T19:38:47.265Z,42.13
2022-12-15T19:43:01.780Z,42.67
2022-12-15T19:47:15.695Z,44.72
2022-12-15T19:51:29.452Z,43.30
2022-12-15T19:55:45.273Z,51.37
2022-12-15T19:59:59.015Z,60.67
2022-12-15T20:04:13.309Z,51.97
2022-12-15T20:08:29.338Z,56.73
2022-12-15T20:12:44.712Z,51.47
2022-12-15T20:16:58.550Z,51.22
2022-12-15T20:21:15.791Z,57.47
2022-12-15T20:25:35.879Z,59.70
2022-12-15T20:29:51.203Z,54.25
2022-12-15T20:34:04.950Z,52.00
2022-12-15T20:38:27.440Z,55.43
2022-12-15T20:42:41.232Z,53.85
2022-12-15T20:46:56.429Z,59.33
2022-12-15T20:51:15.624Z,49.47
2022-12-15T20:55:29.835Z,54.70
2022-12-15T20:59:44.687Z,53.65
2022-12-15T21:04:01.478Z,57.03
2022-12-15T21:08:19.282Z,51.60
2022-12-15T21:12:33.201Z,39.15
2022-12-15T21:16:47.041Z,24.90
2022-12-15T21:21:02.258Z,47.53
2022-12-15T21:25:25.896Z,45.45
2022-12-15T21:29:39.672Z,45.00
2022-12-15T21:33:53.558Z,48.03
2022-12-15T21:38:29.888Z,47.05
2022-12-15T21:42:43.895Z,47.42
2022-12-15T21:46:58.112Z,50.95
2022-12-15T21:51:15.234Z,46.40
2022-12-15T21:55:31.214Z,45.22
2022-12-15T21:59:44.859Z,46.95
2022-12-15T22:04:02.131Z,54.53
2022-12-15T22:08:18.312Z,49.88
2022-12-15T22:12:33.860Z,44.15
2022-12-15T22:16:47.808Z,42.97
2022-12-15T22:21:01.626Z,44.60
2022-12-15T22:25:19.919Z,42.78
2022-12-15T22:29:35.134Z,45.15
2022-12-15T22:33:49.184Z,46.20
2022-12-15T22:38:03.110Z,47.28
2022-12-15T22:42:18.315Z,45.97
2022-12-15T22:46:33.552Z,47.13
2022-12-15T22:50:47.379Z,46.65
2022-12-15T22:55:01.421Z,47.65
2022-12-15T22:59:19.986Z,42.70
2022-12-15T23:03:35.741Z,55.15
2022-12-15T23:07:49.871Z,45.53
2022-12-15T23:12:03.734Z,45.77
2022-12-15T23:16:21.646Z,46.05
2022-12-15T23:20:37.086Z,44.58
2022-12-15T23:24:50.808Z,44.17
2022-12-15T23:29:04.617Z,44.67
2022-12-15T23:33:18.464Z,41.75
2022-12-15T23:37:34.118Z,41.72
2022-12-15T23:41:47.872Z,42.40
2022-12-15T23:46:03.247Z,46.00
2022-12-15T23:50:17.183Z,40.72
2022-12-15T23:54:32.323Z,43.33
2022-12-15T23:58:47.572Z,42.63
